Time;durP1;ratioP1;P1;durP2;ratioP2;P2;SDS_P1;SDS_P2;PMS_P1;PMS_P2;Temp;Humidity;BMP_temperature;BMP_pressure;BME280_temperature;BME280_humidity;BME280_pressure;Samples;Min_cycle;Max_cycle;Signal;HPM_P1;HPM_P2
2022/04/04 00:00:06;;;;;;;;;;;;;;;13.54;54.20;101535.97;1036790;28;622;-62
2022/04/04 00:00:56;;;;;;;;;;;;;;;13.53;54.37;101526.22;1036713;28;646;-62
2022/04/04 00:01:47;;;;;;;;;;;;;;;13.53;54.28;101524.41;1036765;28;614;-62
2022/04/04 00:02:37;;;;;;;;;;;;;;;13.55;54.12;101525.16;1034947;28;619;-62
2022/04/04 00:03:28;;;;;;;;;;;;;;;13.53;54.17;101526.22;1035167;28;655;-62
2022/04/04 00:04:18;;;;;;;;;;;;;;;13.50;53.83;101524.59;1036779;28;788;-62
2022/04/04 00:05:08;;;;;;;;;;;;;;;13.49;54.62;101522.00;1035164;28;643;-62
2022/04/04 00:05:59;;;;;;;;;;;;;;;13.48;54.32;101518.47;1040126;28;1579;-62
2022/04/04 00:06:49;;;;;;;;;;;;;;;13.50;53.85;101521.06;1040313;28;646;-63
2022/04/04 00:07:40;;;;;;;;;;;;;;;13.50;53.88;101524.59;1040221;28;1642;-62
2022/04/04 00:08:33;;;;;;;;;;;;;;;13.49;54.66;101514.84;1040330;28;646;-63
2022/04/04 00:09:23;;;;;;;;;;;;;;;13.47;53.66;101511.41;1040073;28;646;-62
2022/04/04 00:10:14;;;;;;;;;;;;;;;13.47;53.87;101511.41;1040446;28;564;-62
2022/04/04 00:11:04;;;;;;;;;;;;;;;13.46;54.38;101511.50;1039763;28;616;-62
2022/04/04 00:11:55;;;;;;;;;;;;;;;13.47;54.13;101506.03;1040547;28;666;-62
2022/04/04 00:12:45;;;;;;;;;;;;;;;13.47;53.59;101507.88;1040961;28;724;-62
2022/04/04 00:13:36;;;;;;;;;;;;;;;13.46;54.57;101504.31;1041603;28;710;-63
2022/04/04 00:14:26;;;;;;;;;;;;;;;13.46;54.65;101511.50;1036587;28;780;-63
2022/04/04 00:15:16;;;;;;;;;;;;;;;13.45;54.16;101501.75;1036188;28;650;-63
2022/04/04 00:16:07;;;;;;;;;;;;;;;13.46;54.47;101503.47;1037050;28;686;-63
2022/04/04 00:17:00;;;;;;;;;;;;;;;13.46;53.69;101500.78;1037174;28;635;-63
2022/04/04 00:17:50;;;;;;;;;;;;;;;13.46;54.75;101498.97;1040247;28;670;-62
2022/04/04 00:18:41;;;;;;;;;;;;;;;13.45;53.73;101493.72;1040950;28;1914;-61
2022/04/04 00:19:31;;;;;;;;;;;;;;;13.45;54.44;101491.03;1036576;28;714;-61
2022/04/04 00:20:22;;;;;;;;;;;;;;;13.42;53.99;101492.13;1036093;28;662;-63
2022/04/04 00:21:12;;;;;;;;;;;;;;;13.40;54.88;101491.38;1041617;28;783;-63
2022/04/04 00:22:03;;;;;;;;;;;;;;;13.43;53.77;101493.00;1040849;28;909;-63
2022/04/04 00:22:53;;;;;;;;;;;;;;;13.41;53.72;101493.09;1040907;28;685;-63
2022/04/04 00:23:44;;;;;;;;;;;;;;;13.42;54.28;101484.09;1040473;28;634;-64
2022/04/04 00:24:35;;;;;;;;;;;;;;;13.41;53.98;101482.38;1040883;28;634;-62
2022/04/04 00:25:26;;;;;;;;;;;;;;;13.41;54.40;101479.69;1040589;28;658;-63
2022/04/04 00:26:16;;;;;;;;;;;;;;;13.42;53.85;101475.22;1040050;28;634;-63
2022/04/04 00:27:07;;;;;;;;;;;;;;;13.41;53.94;101477.03;1042254;28;626;-64
2022/04/04 00:27:57;;;;;;;;;;;;;;;13.38;53.88;101466.50;1038665;28;638;-62
2022/04/04 00:28:49;;;;;;;;;;;;;;;13.38;54.44;101469.19;1038805;28;633;-63
2022/04/04 00:29:39;;;;;;;;;;;;;;;13.39;53.78;101473.59;1044027;28;583;-63
2022/04/04 00:30:30;;;;;;;;;;;;;;;13.37;53.96;101472.84;1043501;28;657;-63
2022/04/04 00:31:20;;;;;;;;;;;;;;;13.38;53.95;101466.50;1043105;28;686;-63
2022/04/04 00:32:11;;;;;;;;;;;;;;;13.41;54.18;101468.13;1043177;28;680;-63
2022/04/04 00:33:01;;;;;;;;;;;;;;;13.38;54.10;101471.88;1042382;28;709;-63
2022/04/04 00:33:52;;;;;;;;;;;;;;;13.39;54.03;101470.06;1040624;28;615;-63
2022/04/04 00:34:42;;;;;;;;;;;;;;;13.36;53.79;101457.72;1040939;28;705;-63
2022/04/04 00:35:33;;;;;;;;;;;;;;;13.35;54.50;101464.03;1040325;28;1677;-64
2022/04/04 00:36:23;;;;;;;;;;;;;;;13.34;54.34;101461.47;1040919;28;630;-63
2022/04/04 00:37:13;;;;;;;;;;;;;;;13.34;54.33;101451.63;1040517;28;658;-63
2022/04/04 00:38:04;;;;;;;;;;;;;;;13.35;53.66;101456.00;1040863;28;626;-63
2022/04/04 00:38:54;;;;;;;;;;;;;;;13.34;53.45;101456.97;1041495;28;642;-63
2022/04/04 00:39:45;;;;;;;;;;;;;;;13.33;53.87;101460.59;1040967;28;622;-63
2022/04/04 00:40:35;;;;;;;;;;;;;;;13.33;54.20;101447.22;1040841;28;702;-63
2022/04/04 00:41:26;;;;;;;;;;;;;;;13.33;54.43;101457.94;1040876;28;673;-63
2022/04/04 00:42:16;;;;;;;;;;;;;;;13.33;54.34;101452.56;1040822;28;705;-63
2022/04/04 00:43:07;;;;;;;;;;;;;;;13.33;53.75;101449.91;1041127;28;709;-63
2022/04/04 00:43:57;;;;;;;;;;;;;;;13.35;53.85;101449.78;1037622;28;693;-63
2022/04/04 00:44:48;;;;;;;;;;;;;;;13.34;54.15;101450.75;1037024;28;662;-63
2022/04/04 00:45:38;;;;;;;;;;;;;;;13.34;54.30;101451.63;1041296;28;666;-63
2022/04/04 00:46:28;;;;;;;;;;;;;;;13.31;53.48;101451.81;1040867;28;638;-63
2022/04/04 00:47:19;;;;;;;;;;;;;;;13.31;53.67;101446.47;1040463;28;666;-63
2022/04/04 00:48:09;;;;;;;;;;;;;;;13.32;53.55;101450.00;1040880;28;669;-64
2022/04/04 00:49:00;;;;;;;;;;;;;;;13.33;54.45;101447.22;1040236;28;1134;-63
2022/04/04 00:49:51;;;;;;;;;;;;;;;13.31;54.03;101445.59;1040833;28;677;-63
2022/04/04 00:50:41;;;;;;;;;;;;;;;13.31;54.09;101443.78;1039470;28;1271;-63
2022/04/04 00:51:31;;;;;;;;;;;;;;;13.30;54.15;101439.38;1035312;28;637;-63
2022/04/04 00:52:22;;;;;;;;;;;;;;;13.30;54.57;101438.53;1037719;28;650;-63
2022/04/04 00:53:12;;;;;;;;;;;;;;;13.30;54.47;101433.16;1037359;28;686;-63
2022/04/04 00:54:03;;;;;;;;;;;;;;;13.31;54.48;101437.56;1037431;28;602;-63
2022/04/04 00:54:53;;;;;;;;;;;;;;;13.30;53.49;101435.84;1035538;28;650;-63
2022/04/04 00:55:43;;;;;;;;;;;;;;;13.28;53.93;101430.59;1037276;28;677;-63
2022/04/04 00:56:34;;;;;;;;;;;;;;;13.28;54.23;101427.06;1037295;28;610;-63
2022/04/04 00:57:24;;;;;;;;;;;;;;;13.28;54.12;101430.59;1037202;28;697;-63
2022/04/04 00:58:15;;;;;;;;;;;;;;;13.29;54.33;101426.97;1035794;28;686;-62
2022/04/04 00:59:05;;;;;;;;;;;;;;;13.28;54.42;101422.56;1035505;28;745;-63
2022/04/04 00:59:56;;;;;;;;;;;;;;;13.31;54.38;101422.38;1037259;28;661;-63
2022/04/04 01:00:46;;;;;;;;;;;;;;;13.28;54.24;101422.56;1037332;28;618;-63
2022/04/04 01:01:36;;;;;;;;;;;;;;;13.29;53.57;101426.97;1037244;28;667;-63
2022/04/04 01:02:27;;;;;;;;;;;;;;;13.29;54.12;101418.06;1037247;28;629;-63
2022/04/04 01:03:17;;;;;;;;;;;;;;;13.29;53.79;101421.59;1035546;28;659;-63
2022/04/04 01:04:11;;;;;;;;;;;;;;;13.27;53.55;101412.81;1037288;28;548;-62
2022/04/04 01:05:04;;;;;;;;;;;;;;;13.27;53.74;101415.50;1037272;28;693;-62
2022/04/04 01:05:57;;;;;;;;;;;;;;;13.29;53.97;101405.53;1037175;28;610;-63
2022/04/04 01:06:48;;;;;;;;;;;;;;;13.29;53.12;101415.41;1036300;28;630;-62
2022/04/04 01:07:38;;;;;;;;;;;;;;;13.29;54.05;101410.91;1035159;28;729;-63
2022/04/04 01:08:29;;;;;;;;;;;;;;;13.29;53.54;101402.88;1036450;28;716;-63
2022/04/04 01:09:19;;;;;;;;;;;;;;;13.29;53.74;101400.19;1038601;28;1661;-62
2022/04/04 01:10:10;;;;;;;;;;;;;;;13.26;54.14;101408.44;1040311;28;740;-63
2022/04/04 01:11:00;;;;;;;;;;;;;;;13.25;53.35;101406.75;1042350;28;638;-62
2022/04/04 01:11:50;;;;;;;;;;;;;;;13.25;53.57;101401.38;1040345;28;631;-62
2022/04/04 01:12:41;;;;;;;;;;;;;;;13.25;53.62;101396.03;1040998;28;642;-62
2022/04/04 01:13:31;;;;;;;;;;;;;;;13.24;54.30;101407.69;1040833;28;556;-62
2022/04/04 01:14:22;;;;;;;;;;;;;;;13.23;53.51;101394.41;1040748;28;736;-62
2022/04/04 01:15:12;;;;;;;;;;;;;;;13.23;53.98;101395.28;1040091;28;682;-62
2022/04/04 01:16:02;;;;;;;;;;;;;;;13.23;53.27;101391.75;1040765;28;603;-62
2022/04/04 01:16:53;;;;;;;;;;;;;;;13.22;54.01;101390.88;1040844;28;634;-62
2022/04/04 01:17:45;;;;;;;;;;;;;;;13.21;54.23;101386.50;1040329;28;630;-63
2022/04/04 01:18:36;;;;;;;;;;;;;;;13.22;53.91;101380.19;1040052;28;1890;-62
2022/04/04 01:19:26;;;;;;;;;;;;;;;13.24;53.92;101390.78;1036325;28;697;-63
2022/04/04 01:20:16;;;;;;;;;;;;;;;13.23;54.10;101378.34;1035761;28;627;-63
2022/04/04 01:21:07;;;;;;;;;;;;;;;13.22;54.08;101376.63;1040190;28;650;-62
2022/04/04 01:21:57;;;;;;;;;;;;;;;13.19;53.57;101378.56;1040749;28;610;-61
2022/04/04 01:22:48;;;;;;;;;;;;;;;13.19;53.35;101378.56;1040091;28;701;-60
2022/04/04 01:23:39;;;;;;;;;;;;;;;13.18;54.02;101373.31;1040104;28;651;-63
2022/04/04 01:24:30;;;;;;;;;;;;;;;13.18;53.50;101374.16;1039768;28;705;-62
2022/04/04 01:25:21;;;;;;;;;;;;;;;13.19;54.02;101375.03;1040696;28;619;-62
2022/04/04 01:26:11;;;;;;;;;;;;;;;13.19;53.92;101367.84;1040109;28;630;-62
2022/04/04 01:27:02;;;;;;;;;;;;;;;13.19;53.78;101367.00;1040753;28;696;-62
2022/04/04 01:27:52;;;;;;;;;;;;;;;13.19;54.20;101367.00;1040582;28;630;-62
2022/04/04 01:28:43;;;;;;;;;;;;;;;13.17;53.22;101364.41;1040634;28;689;-62
2022/04/04 01:29:34;;;;;;;;;;;;;;;13.17;53.92;101374.28;1040096;28;682;-60
2022/04/04 01:30:25;;;;;;;;;;;;;;;13.17;53.57;101359.06;1040071;28;701;-60
2022/04/04 01:31:15;;;;;;;;;;;;;;;13.17;53.69;101360.88;1040115;28;556;-62
2022/04/04 01:32:06;;;;;;;;;;;;;;;13.17;53.70;101363.56;1036401;28;697;-62
2022/04/04 01:32:56;;;;;;;;;;;;;;;13.16;53.12;101365.38;1036046;28;551;-62
2022/04/04 01:33:46;;;;;;;;;;;;;;;13.15;53.86;101357.44;1039950;28;544;-62
2022/04/04 01:34:37;;;;;;;;;;;;;;;13.15;53.48;101357.44;1036401;28;661;-62
2022/04/04 01:35:27;;;;;;;;;;;;;;;13.16;53.68;101357.34;1035512;28;1925;-62
2022/04/04 01:36:18;;;;;;;;;;;;;;;13.16;54.08;101359.16;1041906;28;563;-62
2022/04/04 01:37:08;;;;;;;;;;;;;;;13.13;53.14;101344.13;1042605;28;708;-63
2022/04/04 01:37:59;;;;;;;;;;;;;;;13.13;53.40;101335.25;1043278;28;662;-63
2022/04/04 01:38:49;;;;;;;;;;;;;;;13.15;52.97;101344.06;1044310;28;1863;-63
2022/04/04 01:39:39;;;;;;;;;;;;;;;13.15;53.89;101349.44;1040756;28;638;-63
2022/04/04 01:40:30;;;;;;;;;;;;;;;13.14;53.72;101342.31;1040848;28;698;-64
2022/04/04 01:41:20;;;;;;;;;;;;;;;13.14;53.47;101345.00;1040675;28;674;-63
2022/04/04 01:42:11;;;;;;;;;;;;;;;13.15;53.23;101344.94;1036877;28;717;-64
2022/04/04 01:43:01;;;;;;;;;;;;;;;13.14;53.83;101343.19;1036930;28;645;-63
2022/04/04 01:43:52;;;;;;;;;;;;;;;13.12;53.46;101331.72;1040916;28;1739;-63
2022/04/04 01:44:42;;;;;;;;;;;;;;;13.10;54.05;101338.13;1036916;28;637;-63
2022/04/04 01:46:42;;;;;;;;;;;;;;;13.08;53.98;101338.22;1041201;28;610;-63
2022/04/04 01:47:32;;;;;;;;;;;;;;;13.09;53.50;101328.38;1041136;28;776;-63
2022/04/04 01:48:23;;;;;;;;;;;;;;;13.11;53.89;101327.31;1040753;28;622;-64
2022/04/04 01:49:13;;;;;;;;;;;;;;;13.12;53.16;101328.19;1040493;28;1383;-63
2022/04/04 01:50:03;;;;;;;;;;;;;;;13.11;53.96;101329.16;1040619;28;701;-62
2022/04/04 01:50:54;;;;;;;;;;;;;;;13.11;53.92;101324.66;1037545;28;1264;-61
2022/04/04 01:51:44;;;;;;;;;;;;;;;13.10;53.43;101316.72;1036998;28;647;-61
2022/04/04 01:52:35;;;;;;;;;;;;;;;13.08;53.84;101311.47;1037043;28;1261;-61
2022/04/04 01:53:25;;;;;;;;;;;;;;;13.10;53.88;101314.91;1035732;28;713;-62
2022/04/04 01:54:16;;;;;;;;;;;;;;;13.09;53.46;101309.66;1036333;28;623;-62
2022/04/04 01:55:06;;;;;;;;;;;;;;;13.08;52.94;101308.81;1037080;28;658;-62
2022/04/04 01:55:56;;;;;;;;;;;;;;;13.08;53.48;101302.59;1035260;28;658;-62
2022/04/04 01:56:47;;;;;;;;;;;;;;;13.08;53.24;101302.59;1035483;28;627;-62
2022/04/04 01:57:37;;;;;;;;;;;;;;;13.05;53.60;101295.66;1034937;28;630;-62
2022/04/04 01:58:28;;;;;;;;;;;;;;;13.07;53.66;101292.88;1036132;28;1910;-62
2022/04/04 01:59:18;;;;;;;;;;;;;;;13.06;53.96;101294.69;1037061;28;658;-62
2022/04/04 02:00:08;;;;;;;;;;;;;;;13.09;53.99;101290.94;1035301;28;732;-62
2022/04/04 02:01:01;;;;;;;;;;;;;;;13.07;53.80;101293.75;1037116;28;646;-62
2022/04/04 02:01:51;;;;;;;;;;;;;;;13.06;53.45;101289.34;1035313;28;685;-62
2022/04/04 02:02:42;;;;;;;;;;;;;;;13.06;53.09;101278.66;1037016;28;638;-62
2022/04/04 02:03:32;;;;;;;;;;;;;;;13.05;53.46;101284.97;1038314;28;1700;-62
2022/04/04 02:04:23;;;;;;;;;;;;;;;13.05;53.50;101278.75;1037042;28;694;-62
2022/04/04 02:05:14;;;;;;;;;;;;;;;13.04;53.85;101269.88;1035958;28;673;-62
2022/04/04 02:06:04;;;;;;;;;;;;;;;13.04;53.56;101271.69;1035976;28;693;-62
2022/04/04 02:06:54;;;;;;;;;;;;;;;13.06;53.06;101269.75;1035918;28;615;-62
2022/04/04 02:07:45;;;;;;;;;;;;;;;13.05;53.65;101263.56;1035521;28;662;-61
2022/04/04 02:08:36;;;;;;;;;;;;;;;13.07;53.58;101266.97;1035980;28;702;-62
2022/04/04 02:09:26;;;;;;;;;;;;;;;13.08;53.28;101273.16;1035873;28;918;-61
2022/04/04 02:10:17;;;;;;;;;;;;;;;13.06;53.53;101259.91;1036226;28;670;-61
2022/04/04 02:11:07;;;;;;;;;;;;;;;13.06;53.61;101259.91;1035447;28;587;-61
2022/04/04 02:11:58;;;;;;;;;;;;;;;13.06;52.94;101265.28;1035848;28;643;-62
2022/04/04 02:12:48;;;;;;;;;;;;;;;13.07;52.86;101266.13;1036051;28;722;-62
2022/04/04 02:13:38;;;;;;;;;;;;;;;13.07;53.38;101258.09;1036076;28;618;-62
2022/04/04 02:14:29;;;;;;;;;;;;;;;13.06;53.57;101256.38;1035679;28;647;-62
2022/04/04 02:15:19;;;;;;;;;;;;;;;13.08;53.51;101255.28;1037025;28;623;-62
2022/04/04 02:16:10;;;;;;;;;;;;;;;13.08;53.59;101252.63;1035908;28;916;-62
2022/04/04 02:17:00;;;;;;;;;;;;;;;13.08;53.60;101252.63;1036027;28;551;-62
2022/04/04 02:17:51;;;;;;;;;;;;;;;13.07;53.01;101247.41;1035926;28;651;-62
2022/04/04 02:18:42;;;;;;;;;;;;;;;13.05;53.27;101254.66;1035817;28;1969;-63
2022/04/04 02:19:32;;;;;;;;;;;;;;;13.04;53.10;101239.56;1036454;28;741;-62
2022/04/04 02:20:23;;;;;;;;;;;;;;;13.04;53.09;101245.78;1035979;28;615;-63
2022/04/04 02:21:13;;;;;;;;;;;;;;;13.04;53.71;101242.25;1036005;28;630;-60
2022/04/04 02:22:03;;;;;;;;;;;;;;;13.03;53.67;101244.06;1035836;28;647;-60
2022/04/04 02:22:54;;;;;;;;;;;;;;;13.03;53.13;101237.84;1035867;28;650;-60
2022/04/04 02:23:44;;;;;;;;;;;;;;;13.02;53.91;101230.78;1035185;28;639;-61
2022/04/04 02:24:35;;;;;;;;;;;;;;;13.03;53.67;101241.41;1035935;28;650;-60
2022/04/04 02:25:26;;;;;;;;;;;;;;;13.04;53.53;101229.72;1035980;28;749;-61
2022/04/04 02:26:17;;;;;;;;;;;;;;;13.05;53.74;101235.94;1035752;28;685;-60
2022/04/04 02:27:07;;;;;;;;;;;;;;;13.04;53.90;101232.41;1035689;28;531;-61
2022/04/04 02:27:58;;;;;;;;;;;;;;;13.04;53.27;101236.91;1035822;28;678;-60
2022/04/04 02:28:48;;;;;;;;;;;;;;;13.07;53.08;101228.66;1035177;28;615;-61
2022/04/04 02:29:39;;;;;;;;;;;;;;;13.05;53.70;101222.56;1035864;28;635;-61
2022/04/04 02:30:29;;;;;;;;;;;;;;;13.03;53.56;101225.34;1036062;28;717;-61
2022/04/04 02:31:19;;;;;;;;;;;;;;;13.01;53.31;101227.25;1035778;28;635;-61
2022/04/04 02:32:10;;;;;;;;;;;;;;;13.00;53.43;101222.88;1035837;28;618;-61
2022/04/04 02:33:01;;;;;;;;;;;;;;;13.01;53.09;101224.59;1035152;28;666;-61
2022/04/04 02:33:52;;;;;;;;;;;;;;;12.98;53.22;101214.09;1039312;28;1753;-61
2022/04/04 02:34:43;;;;;;;;;;;;;;;13.00;53.39;101220.19;1040058;28;623;-61
2022/04/04 02:35:33;;;;;;;;;;;;;;;13.00;53.20;101214.84;1040315;28;1597;-61
2022/04/04 02:36:23;;;;;;;;;;;;;;;13.02;53.21;101214.75;1040392;28;614;-61
2022/04/04 02:37:14;;;;;;;;;;;;;;;13.00;53.71;101211.31;1040554;28;627;-61
2022/04/04 02:38:04;;;;;;;;;;;;;;;13.00;52.92;101206.81;1040323;28;632;-61
2022/04/04 02:38:55;;;;;;;;;;;;;;;13.00;53.20;101208.63;1040286;28;1894;-61
2022/04/04 02:39:45;;;;;;;;;;;;;;;13.00;53.73;101209.50;1040321;28;646;-61
2022/04/04 02:40:36;;;;;;;;;;;;;;;13.03;53.69;101205.75;1040473;28;642;-61
2022/04/04 02:41:26;;;;;;;;;;;;;;;13.01;53.29;101205.00;1040176;28;758;-61
2022/04/04 02:42:16;;;;;;;;;;;;;;;13.00;53.63;101204.16;1040480;28;681;-61
2022/04/04 02:43:07;;;;;;;;;;;;;;;12.98;52.84;101187.34;1040501;28;647;-60
2022/04/04 02:43:57;;;;;;;;;;;;;;;12.98;53.38;101198.03;1040254;28;579;-60
2022/04/04 02:44:48;;;;;;;;;;;;;;;12.97;52.81;101192.78;1040372;28;665;-61
2022/04/04 02:45:38;;;;;;;;;;;;;;;12.97;53.49;101192.78;1040423;28;650;-61
2022/04/04 02:46:29;;;;;;;;;;;;;;;12.97;52.81;101187.44;1040552;28;670;-60
2022/04/04 02:47:19;;;;;;;;;;;;;;;12.98;52.86;101184.66;1041810;28;666;-61
2022/04/04 02:48:09;;;;;;;;;;;;;;;12.99;53.69;101182.84;1042979;28;662;-61
2022/04/04 02:49:00;;;;;;;;;;;;;;;12.97;53.07;101179.41;1044416;28;1075;-61
2022/04/04 02:49:50;;;;;;;;;;;;;;;12.96;53.01;101189.25;1041394;28;681;-61
2022/04/04 02:50:41;;;;;;;;;;;;;;;12.95;53.39;101182.19;1040465;28;618;-61
2022/04/04 02:51:32;;;;;;;;;;;;;;;12.96;52.90;101181.22;1040314;28;641;-61
2022/04/04 02:52:23;;;;;;;;;;;;;;;12.95;53.33;101173.31;1040489;28;650;-61
2022/04/04 02:53:13;;;;;;;;;;;;;;;12.94;53.44;101168.94;1037230;28;657;-61
2022/04/04 02:54:04;;;;;;;;;;;;;;;12.94;53.65;101164.44;1036590;28;713;-62
2022/04/04 02:54:54;;;;;;;;;;;;;;;12.94;52.96;101166.25;1040838;28;697;-63
2022/04/04 02:56:54;;;;;;;;;;;;;;;12.94;52.85;101158.22;1040484;28;634;-62
2022/04/04 02:57:44;;;;;;;;;;;;;;;12.94;52.70;101156.41;1040373;28;634;-62
2022/04/04 02:58:35;;;;;;;;;;;;;;;12.96;53.31;101150.94;1040347;28;1955;-62
2022/04/04 02:59:25;;;;;;;;;;;;;;;12.95;53.05;101154.59;1037184;28;587;-62
2022/04/04 03:00:17;;;;;;;;;;;;;;;12.94;52.78;101144.84;1036505;28;724;-62
2022/04/04 03:01:08;;;;;;;;;;;;;;;12.93;53.58;101148.50;1040902;28;677;-62
2022/04/04 03:01:59;;;;;;;;;;;;;;;12.93;52.83;101151.16;1040413;28;651;-62
2022/04/04 03:02:49;;;;;;;;;;;;;;;12.92;53.06;101147.63;1040248;28;638;-63
2022/04/04 03:03:40;;;;;;;;;;;;;;;12.91;53.65;101137.88;1040253;28;1751;-62
2022/04/04 03:04:31;;;;;;;;;;;;;;;12.92;53.30;101144.97;1040312;28;630;-62
2022/04/04 03:05:21;;;;;;;;;;;;;;;12.93;53.03;101135.97;1040421;28;646;-62
2022/04/04 03:06:11;;;;;;;;;;;;;;;12.93;53.56;101135.97;1039772;28;717;-62
2022/04/04 03:07:02;;;;;;;;;;;;;;;12.94;53.21;101126.13;1040294;28;923;-62
2022/04/04 03:07:52;;;;;;;;;;;;;;;12.91;53.66;101124.50;1040306;28;634;-60
2022/04/04 03:08:43;;;;;;;;;;;;;;;12.92;53.65;101125.38;1039717;28;638;-60
2022/04/04 03:09:33;;;;;;;;;;;;;;;12.93;53.59;101124.41;1040516;28;638;-61
2022/04/04 03:10:23;;;;;;;;;;;;;;;12.94;52.91;101120.78;1040304;28;674;-61
2022/04/04 03:11:15;;;;;;;;;;;;;;;12.92;53.23;101122.69;1040383;28;748;-61
2022/04/04 03:12:05;;;;;;;;;;;;;;;12.92;53.04;101114.69;1039689;28;1800;-62
2022/04/04 03:12:56;;;;;;;;;;;;;;;12.91;53.65;101115.63;1035901;28;634;-62
2022/04/04 03:13:46;;;;;;;;;;;;;;;12.91;53.24;101120.97;1035288;28;685;-62
2022/04/04 03:14:37;;;;;;;;;;;;;;;12.92;53.13;101114.69;1040317;28;650;-62
2022/04/04 03:15:27;;;;;;;;;;;;;;;12.91;53.31;101112.97;1040412;28;752;-62
2022/04/04 03:16:17;;;;;;;;;;;;;;;12.93;52.78;101113.72;1040324;28;631;-62
2022/04/04 03:17:08;;;;;;;;;;;;;;;12.90;53.52;101117.44;1040275;28;642;-62
2022/04/04 03:17:58;;;;;;;;;;;;;;;12.90;53.33;101100.59;1040371;28;634;-62
2022/04/04 03:18:49;;;;;;;;;;;;;;;12.91;53.54;101103.13;1040219;28;1898;-61
2022/04/04 03:19:39;;;;;;;;;;;;;;;12.91;52.59;101094.25;1040487;28;618;-61
2022/04/04 03:20:31;;;;;;;;;;;;;;;12.90;53.42;101100.59;1039392;28;674;-61
2022/04/04 03:21:21;;;;;;;;;;;;;;;12.89;53.30;101106.91;1039577;28;705;-61
2022/04/04 03:22:12;;;;;;;;;;;;;;;12.89;53.07;101091.69;1035849;28;618;-61
2022/04/04 03:23:02;;;;;;;;;;;;;;;12.89;53.50;101089.03;1035301;28;663;-62
2022/04/04 03:23:53;;;;;;;;;;;;;;;12.89;53.28;101088.16;1039862;28;677;-62
2022/04/04 03:24:44;;;;;;;;;;;;;;;12.90;53.33;101087.22;1040374;28;590;-62
2022/04/04 03:25:34;;;;;;;;;;;;;;;12.88;53.14;101079.28;1039590;28;626;-62
2022/04/04 03:26:25;;;;;;;;;;;;;;;12.88;53.31;101078.44;1040371;28;625;-63
2022/04/04 03:27:16;;;;;;;;;;;;;;;12.88;53.55;101081.09;1040312;28;617;-62
2022/04/04 03:28:06;;;;;;;;;;;;;;;12.88;53.14;101078.44;1039886;28;646;-62
2022/04/04 03:28:56;;;;;;;;;;;;;;;12.86;53.64;101075.88;1040285;28;637;-62
2022/04/04 03:29:47;;;;;;;;;;;;;;;12.86;53.61;101076.72;1040329;28;630;-62
2022/04/04 03:30:37;;;;;;;;;;;;;;;12.85;52.69;101069.66;1039686;28;568;-62
2022/04/04 03:31:28;;;;;;;;;;;;;;;12.85;52.88;101080.34;1039748;28;630;-62
2022/04/04 03:32:18;;;;;;;;;;;;;;;12.85;52.91;101074.16;1039624;28;689;-62
2022/04/04 03:33:09;;;;;;;;;;;;;;;12.85;53.56;101066.13;1039684;28;596;-62
2022/04/04 03:33:59;;;;;;;;;;;;;;;12.82;52.75;101059.16;1039663;28;1590;-61
2022/04/04 03:34:50;;;;;;;;;;;;;;;12.84;53.67;101061.75;1039887;28;666;-62
2022/04/04 03:35:40;;;;;;;;;;;;;;;12.87;52.96;101066.88;1039539;28;1728;-62
2022/04/04 03:36:31;;;;;;;;;;;;;;;12.85;53.43;101063.44;1040798;28;735;-62
2022/04/04 03:37:21;;;;;;;;;;;;;;;12.84;52.76;101062.59;1039669;28;630;-62
2022/04/04 03:38:13;;;;;;;;;;;;;;;12.83;53.23;101057.34;1040177;28;618;-62
2022/04/04 03:39:04;;;;;;;;;;;;;;;12.85;53.35;101055.44;1039714;28;677;-60
2022/04/04 03:39:54;;;;;;;;;;;;;;;12.86;53.41;101054.47;1040108;28;634;-60
2022/04/04 03:40:45;;;;;;;;;;;;;;;12.85;53.31;101042.91;1040279;28;606;-60
2022/04/04 03:41:35;;;;;;;;;;;;;;;12.86;52.58;101055.31;1039886;28;606;-60
2022/04/04 03:42:25;;;;;;;;;;;;;;;12.88;53.60;101054.38;1040197;28;626;-61
2022/04/04 03:43:16;;;;;;;;;;;;;;;12.85;52.92;101053.63;1040401;28;662;-60
2022/04/04 03:44:06;;;;;;;;;;;;;;;12.85;53.29;101045.59;1040224;28;615;-61
2022/04/04 03:44:57;;;;;;;;;;;;;;;12.85;52.75;101042.06;1036027;28;622;-60
2022/04/04 03:45:47;;;;;;;;;;;;;;;12.88;53.56;101041.00;1035502;28;689;-60
2022/04/04 03:46:38;;;;;;;;;;;;;;;12.86;52.91;101044.63;1039580;28;633;-61
2022/04/04 03:47:28;;;;;;;;;;;;;;;12.88;52.48;101036.50;1040566;28;671;-62
2022/04/04 03:48:19;;;;;;;;;;;;;;;12.86;52.88;101036.59;1040937;28;630;-61
2022/04/04 03:49:09;;;;;;;;;;;;;;;12.85;52.58;101034.03;1040436;28;1154;-61
2022/04/04 03:49:59;;;;;;;;;;;;;;;12.84;52.76;101030.50;1040975;28;754;-61
2022/04/04 03:50:54;;;;;;;;;;;;;;;12.85;52.51;101034.88;1041020;28;1260;-61
2022/04/04 03:51:44;;;;;;;;;;;;;;;12.86;53.14;101036.59;1041620;28;697;-60
2022/04/04 03:52:35;;;;;;;;;;;;;;;12.84;53.55;101033.19;1041048;28;701;-64
2022/04/04 03:53:26;;;;;;;;;;;;;;;12.83;52.53;101038.63;1040965;28;639;-61
2022/04/04 03:54:16;;;;;;;;;;;;;;;12.83;52.70;101023.44;1041809;28;618;-61
2022/04/04 03:55:07;;;;;;;;;;;;;;;12.83;53.28;101022.59;1041120;28;623;-61
2022/04/04 03:55:58;;;;;;;;;;;;;;;12.83;53.22;101015.41;1041017;28;641;-61
2022/04/04 03:56:49;;;;;;;;;;;;;;;12.82;52.93;101027.06;1041679;28;640;-61
2022/04/04 03:57:40;;;;;;;;;;;;;;;12.83;52.79;101018.09;1043316;28;638;-61
2022/04/04 03:58:30;;;;;;;;;;;;;;;12.82;53.29;101015.53;1044256;28;587;-61
2022/04/04 03:59:20;;;;;;;;;;;;;;;12.81;52.77;101003.97;1044463;28;631;-60
2022/04/04 04:00:11;;;;;;;;;;;;;;;12.82;52.98;101012.84;1043501;28;661;-60
2022/04/04 04:01:01;;;;;;;;;;;;;;;12.80;52.59;101010.28;1041467;28;610;-58
2022/04/04 04:01:52;;;;;;;;;;;;;;;12.82;53.46;101016.38;1041136;28;681;-60
2022/04/04 04:02:42;;;;;;;;;;;;;;;12.80;52.70;101012.97;1040819;28;1648;-60
2022/04/04 04:03:34;;;;;;;;;;;;;;;12.80;53.21;101007.59;1041086;28;706;-60
2022/04/04 04:04:24;;;;;;;;;;;;;;;12.81;53.44;101006.66;1041687;28;646;-60
2022/04/04 04:05:15;;;;;;;;;;;;;;;12.81;53.33;101008.47;1040926;28;685;-60
2022/04/04 04:06:11;;;;;;;;;;;;;;;12.83;53.49;101002.03;1040998;28;638;-60
2022/04/04 04:07:01;;;;;;;;;;;;;;;12.84;52.36;100998.41;1040920;28;666;-60
2022/04/04 04:07:52;;;;;;;;;;;;;;;12.88;53.41;100995.53;1041144;28;634;-60
2022/04/04 04:08:43;;;;;;;;;;;;;;;12.91;52.53;100992.59;1042214;28;850;-60
2022/04/04 04:09:33;;;;;;;;;;;;;;;12.97;52.28;100989.50;1041150;28;713;-60
2022/04/04 04:10:23;;;;;;;;;;;;;;;12.99;52.83;100996.44;1040999;28;653;-61
2022/04/04 04:11:14;;;;;;;;;;;;;;;13.07;52.30;100990.53;1040879;28;638;-61
2022/04/04 04:12:05;;;;;;;;;;;;;;;13.16;52.37;100992.56;1040913;28;674;-61
2022/04/04 04:12:56;;;;;;;;;;;;;;;13.28;51.75;100988.97;1041022;28;662;-62
2022/04/04 04:13:47;;;;;;;;;;;;;;;13.40;51.52;100982.72;1041163;28;654;-61
2022/04/04 04:14:37;;;;;;;;;;;;;;;13.49;51.84;100979.34;1040926;28;642;-61
2022/04/04 04:15:28;;;;;;;;;;;;;;;13.59;51.03;100981.34;1040967;28;622;-61
2022/04/04 04:16:18;;;;;;;;;;;;;;;13.69;51.00;100979.69;1040880;28;599;-61
2022/04/04 04:17:09;;;;;;;;;;;;;;;13.83;51.07;100976.78;1041071;28;654;-60
2022/04/04 04:17:59;;;;;;;;;;;;;;;14.00;50.17;100981.72;1041066;28;697;-61
2022/04/04 04:18:50;;;;;;;;;;;;;;;14.14;50.65;100978.84;1040831;28;1889;-61
2022/04/04 04:20:50;;;;;;;;;;;;;;;14.55;49.58;100978.28;1041128;28;584;-61
2022/04/04 04:21:41;;;;;;;;;;;;;;;14.72;48.71;100966.22;1040930;28;615;-61
2022/04/04 04:22:31;;;;;;;;;;;;;;;14.86;48.76;100974.03;1041519;28;644;-61
2022/04/04 04:23:21;;;;;;;;;;;;;;;14.99;48.61;100968.50;1037789;28;673;-61
2022/04/04 04:24:12;;;;;;;;;;;;;;;15.12;48.25;100968.34;1033070;28;713;-61
2022/04/04 04:25:02;;;;;;;;;;;;;;;15.28;47.71;100966.97;1037807;28;602;-61
2022/04/04 04:25:53;;;;;;;;;;;;;;;15.47;47.38;100954.69;1041309;28;685;-61
2022/04/04 04:26:43;;;;;;;;;;;;;;;15.60;46.99;100958.94;1041015;28;646;-61
2022/04/04 04:27:40;;;;;;;;;;;;;;;15.67;46.63;100953.03;1042232;28;638;-57
2022/04/04 04:28:30;;;;;;;;;;;;;;;15.72;46.99;100950.81;1040935;28;710;-60
2022/04/04 04:29:20;;;;;;;;;;;;;;;15.82;46.65;100952.59;1040857;28;701;-60